createdAt,value
2019-04-14T00:04:29.001Z,94.50
2019-04-14T00:14:35.761Z,94.80
2019-04-14T00:24:42.338Z,94.90
2019-04-14T00:35:01.929Z,95.30
2019-04-14T00:45:34.011Z,95.20
2019-04-14T00:55:29.931Z,95.60
2019-04-14T01:05:36.004Z,95.90
2019-04-14T01:15:51.455Z,96.00
2019-04-14T01:25:49.861Z,96.20
2019-04-14T01:35:55.360Z,96.70
2019-04-14T01:46:09.693Z,96.90
2019-04-14T01:56:25.108Z,97.50
2019-04-14T02:06:31.283Z,97.50
2019-04-14T02:16:41.982Z,97.70
2019-04-14T02:26:43.911Z,98.10
2019-04-14T02:57:30.429Z,99.10
2019-04-14T03:07:37.373Z,99.40
2019-04-14T03:18:23.973Z,99.90
2019-04-14T03:28:36.591Z,99.90
2019-04-14T03:38:42.020Z,99.90
2019-04-14T03:58:24.857Z,99.90
2019-04-14T04:08:31.265Z,99.90
2019-04-14T04:18:47.393Z,99.90
2019-04-14T04:29:09.160Z,99.90
2019-04-14T04:39:19.346Z,99.90
2019-04-14T04:49:27.387Z,99.90
2019-04-14T04:59:32.120Z,99.90
2019-04-14T05:09:55.607Z,94.90
2019-04-14T05:20:01.000Z,90.30
2019-04-14T05:30:06.881Z,83.20
2019-04-14T05:40:12.451Z,76.70
2019-04-14T05:50:18.159Z,72.70
2019-04-14T06:00:23.613Z,70.50
2019-04-14T06:10:28.982Z,65.90
2019-04-14T06:20:34.938Z,64.00
2019-04-14T06:30:52.376Z,62.60
2019-04-14T06:41:00.922Z,62.90
2019-04-14T06:51:06.416Z,60.70
2019-04-14T07:01:11.922Z,60.20
2019-04-14T07:11:17.328Z,60.50
2019-04-14T07:21:22.643Z,61.50
2019-04-14T07:31:53.066Z,60.70
2019-04-14T07:42:17.462Z,61.00
2019-04-14T07:52:26.652Z,63.10
2019-04-14T08:02:53.817Z,64.60
2019-04-14T08:12:59.250Z,65.30
2019-04-14T08:23:04.562Z,65.20
2019-04-14T08:33:10.047Z,64.40
2019-04-14T08:43:49.425Z,62.90
2019-04-14T08:54:19.398Z,63.70
2019-04-14T09:04:38.389Z,62.90
2019-04-14T09:14:55.971Z,63.10
2019-04-14T09:24:51.100Z,64.50
2019-04-14T09:34:56.504Z,63.10
2019-04-14T09:45:01.984Z,62.50
2019-04-14T09:55:07.827Z,63.30
2019-04-14T10:05:13.279Z,63.90
2019-04-14T10:15:18.666Z,62.60
2019-04-14T10:25:24.223Z,63.50
2019-04-14T10:35:29.625Z,63.80
2019-04-14T10:45:35.039Z,61.50
2019-04-14T10:55:40.716Z,61.80
2019-04-14T11:06:09.958Z,59.90
2019-04-14T11:16:15.413Z,59.70
2019-04-14T11:26:23.233Z,59.60
2019-04-14T11:36:45.969Z,59.50
2019-04-14T11:46:53.040Z,59.30
2019-04-14T11:56:58.609Z,59.00
2019-04-14T12:07:28.847Z,58.70
2019-04-14T12:17:34.496Z,58.00
2019-04-14T12:27:40.136Z,58.00
2019-04-14T12:37:45.514Z,56.50
2019-04-14T12:48:13.749Z,54.80
2019-04-14T12:58:20.969Z,55.20
2019-04-14T13:08:26.480Z,56.40
2019-04-14T13:18:31.850Z,54.60
2019-04-14T13:28:37.342Z,54.00
2019-04-14T13:38:42.880Z,54.20
2019-04-14T13:48:48.480Z,55.00
2019-04-14T13:58:54.306Z,54.70
2019-04-14T14:08:59.884Z,53.80
2019-04-14T14:19:36.153Z,54.20
2019-04-14T14:29:41.491Z,55.00
2019-04-14T14:39:46.937Z,53.60
2019-04-14T14:50:05.262Z,54.00
2019-04-14T15:00:23.765Z,54.70
2019-04-14T15:10:29.150Z,54.40
2019-04-14T15:20:35.573Z,55.10
2019-04-14T15:30:40.960Z,54.50
2019-04-14T15:40:46.402Z,54.20
2019-04-14T15:50:51.718Z,54.40
2019-04-14T16:01:24.625Z,54.00
2019-04-14T16:11:43.080Z,55.00
2019-04-14T16:21:48.324Z,54.80
2019-04-14T16:32:21.450Z,54.80
2019-04-14T16:42:26.842Z,56.40
2019-04-14T16:52:41.527Z,56.70
2019-04-14T17:02:47.040Z,58.20
2019-04-14T17:12:52.410Z,58.10
2019-04-14T17:23:28.627Z,59.50
2019-04-14T17:33:39.180Z,60.50
2019-04-14T17:44:12.612Z,60.00
2019-04-14T17:54:35.182Z,61.20
2019-04-14T18:05:01.105Z,61.90
2019-04-14T18:15:14.928Z,62.70
2019-04-14T18:25:20.447Z,63.20
2019-04-14T18:35:30.378Z,64.00
2019-04-14T18:45:57.705Z,65.00
2019-04-14T18:56:14.122Z,65.70
2019-04-14T19:06:19.512Z,66.80
2019-04-14T19:16:39.966Z,67.30
2019-04-14T19:26:45.590Z,68.10
2019-04-14T19:37:04.778Z,69.30
2019-04-14T19:47:10.226Z,70.50
2019-04-14T19:57:24.379Z,72.00
2019-04-14T20:07:29.651Z,73.40
2019-04-14T20:17:59.097Z,75.00
2019-04-14T20:28:16.980Z,75.50
2019-04-14T20:38:23.326Z,76.90
2019-04-14T20:48:28.708Z,76.90
2019-04-14T20:58:34.225Z,77.60
2019-04-14T21:08:57.015Z,78.50
2019-04-14T21:19:21.160Z,80.30
2019-04-14T21:29:57.578Z,80.50
2019-04-14T21:40:30.934Z,81.40
2019-04-14T21:50:36.480Z,82.30
2019-04-14T22:01:44.116Z,83.20
2019-04-14T22:11:49.546Z,84.90
2019-04-14T22:21:54.842Z,86.20
2019-04-14T22:32:00.178Z,87.40
2019-04-14T22:42:05.672Z,88.50
2019-04-14T22:52:10.936Z,89.60
2019-04-14T23:02:28.048Z,90.60
2019-04-14T23:12:42.719Z,91.20
2019-04-14T23:23:19.135Z,91.60
2019-04-14T23:33:24.489Z,92.40
2019-04-14T23:43:29.834Z,92.90
2019-04-14T23:53:35.219Z,93.70
